Time;durP1;ratioP1;P1;durP2;ratioP2;P2;SDS_P1;SDS_P2;PMS_P1;PMS_P2;Temp;Humidity;BMP_temperature;BMP_pressure;BME280_temperature;BME280_humidity;BME280_pressure;Samples;Min_cycle;Max_cycle;Signal;HPM_P1;HPM_P2
2022/06/21 00:00:21;;;;;;;1.47;1.00;;;14.80;95.60;;;;;;5000642;28;20461;-77
2022/06/21 00:02:49;;;;;;;1.50;1.00;;;14.80;95.60;;;;;;4996655;28;20487;-76
2022/06/21 00:05:22;;;;;;;1.43;0.90;;;14.70;95.80;;;;;;4992298;28;20874;-77
2022/06/21 00:07:49;;;;;;;1.47;1.00;;;14.70;95.70;;;;;;4992925;28;20472;-78
2022/06/21 00:10:20;;;;;;;1.47;1.03;;;14.70;96.20;;;;;;4991199;28;20992;-77
2022/06/21 00:12:47;;;;;;;1.50;1.00;;;14.70;95.30;;;;;;4993776;28;20484;-78
2022/06/21 00:15:14;;;;;;;1.50;0.90;;;14.60;95.80;;;;;;4991528;28;20522;-77
2022/06/21 00:17:45;;;;;;;1.43;1.00;;;14.60;96.10;;;;;;4996338;28;21074;-78
2022/06/21 00:20:18;;;;;;;1.50;1.00;;;14.50;96.60;;;;;;4990938;28;20859;-76
2022/06/21 00:22:45;;;;;;;1.50;0.90;;;14.50;97.10;;;;;;5026128;23;20526;-79
2022/06/21 00:25:19;;;;;;;1.43;0.90;;;14.50;96.50;;;;;;5045329;28;20460;-78
2022/06/21 00:27:47;;;;;;;1.47;1.00;;;14.40;96.50;;;;;;5032512;28;20490;-79
2022/06/21 00:30:15;;;;;;;1.50;1.00;;;14.40;96.50;;;;;;5046332;28;20498;-79
2022/06/21 00:32:42;;;;;;;1.47;1.00;;;14.40;96.10;;;;;;5025519;28;20494;-78
2022/06/21 00:35:12;;;;;;;1.47;1.00;;;14.30;96.20;;;;;;5025722;28;20464;-79
2022/06/21 00:37:39;;;;;;;1.50;1.00;;;14.30;96.10;;;;;;5023708;28;20511;-79
2022/06/21 00:40:20;;;;;;;1.50;1.00;;;14.30;97.20;;;;;;5027819;28;20483;-79
2022/06/21 00:42:51;;;;;;;1.43;1.00;;;14.30;97.50;;;;;;5015762;28;20486;-79
2022/06/21 00:45:28;;;;;;;1.47;1.00;;;14.30;97.20;;;;;;5026918;28;20456;-80
2022/06/21 00:47:58;;;;;;;1.50;1.00;;;14.30;97.30;;;;;;5025824;28;20460;-79
2022/06/21 00:50:31;;;;;;;1.50;1.10;;;14.20;98.00;;;;;;5027066;28;20470;-79
2022/06/21 00:53:03;;;;;;;1.50;1.03;;;14.20;97.50;;;;;;5014692;28;20508;-79
2022/06/21 00:55:40;;;;;;;1.50;1.10;;;14.20;97.00;;;;;;5027483;28;20975;-79
2022/06/21 00:58:11;;;;;;;1.50;1.00;;;14.10;97.10;;;;;;5021140;28;20456;-79
2022/06/21 01:00:46;;;;;;;1.50;1.00;;;14.10;97.10;;;;;;5024355;28;20576;-79
2022/06/21 01:03:18;;;;;;;1.50;1.00;;;14.10;98.20;;;;;;4999213;28;20562;-79
2022/06/21 01:05:46;;;;;;;1.50;1.00;;;14.00;98.20;;;;;;5027700;28;20480;-79
2022/06/21 01:08:18;;;;;;;1.50;1.00;;;14.00;98.20;;;;;;5025633;28;20460;-79
2022/06/21 01:10:49;;;;;;;1.50;0.90;;;13.90;98.20;;;;;;5026974;28;20464;-79
2022/06/21 01:13:22;;;;;;;1.47;1.00;;;13.90;98.20;;;;;;5024233;28;20568;-79
2022/06/21 01:15:51;;;;;;;1.50;1.00;;;13.80;98.20;;;;;;5015452;28;20460;-79
2022/06/21 01:18:21;;;;;;;1.50;1.00;;;13.70;98.20;;;;;;5025464;28;20488;-79
2022/06/21 01:20:51;;;;;;;1.50;1.00;;;13.70;98.20;;;;;;5027353;28;20530;-79
2022/06/21 01:23:31;;;;;;;1.50;1.00;;;13.70;98.20;;;;;;5026084;28;20480;-79
2022/06/21 01:26:11;;;;;;;1.50;1.07;;;13.70;98.20;;;;;;5011000;28;20466;-80
2022/06/21 01:28:40;;;;;;;1.50;1.00;;;13.70;98.20;;;;;;5025882;28;20470;-79
2022/06/21 01:31:07;;;;;;;1.47;1.00;;;13.80;98.20;;;;;;5026966;28;20547;-79
2022/06/21 01:33:37;;;;;;;1.47;1.00;;;13.80;98.20;;;;;;5026469;28;20544;-79
2022/06/21 01:36:07;;;;;;;1.50;1.00;;;13.80;98.20;;;;;;5027121;28;20471;-80
2022/06/21 01:38:41;;;;;;;1.47;1.00;;;13.80;98.20;;;;;;5025906;28;20460;-79
2022/06/21 01:41:12;;;;;;;1.50;1.00;;;13.80;98.20;;;;;;5026463;28;20475;-79
2022/06/21 01:43:43;;;;;;;1.47;1.00;;;13.80;98.20;;;;;;5026587;28;20472;-79
2022/06/21 01:46:13;;;;;;;1.47;1.00;;;13.80;98.20;;;;;;5014476;28;20504;-79
2022/06/21 01:48:44;;;;;;;1.50;1.00;;;13.80;98.20;;;;;;5024728;28;20790;-79
2022/06/21 01:51:18;;;;;;;1.47;1.03;;;13.70;98.20;;;;;;5023538;28;20887;-79
2022/06/21 01:53:45;;;;;;;1.50;1.00;;;13.70;98.20;;;;;;5026854;28;20472;-79
2022/06/21 01:56:16;;;;;;;1.50;1.00;;;13.70;98.20;;;;;;5002061;28;20535;-79
2022/06/21 01:58:49;;;;;;;1.50;1.00;;;13.60;98.20;;;;;;5023410;28;20468;-79
2022/06/21 02:01:21;;;;;;;1.50;1.00;;;13.60;98.20;;;;;;5014408;28;20571;-79
2022/06/21 02:03:52;;;;;;;1.50;1.00;;;13.60;98.20;;;;;;5026711;28;20488;-79
2022/06/21 02:06:21;;;;;;;1.47;1.07;;;13.50;98.20;;;;;;5016084;28;20476;-79
2022/06/21 02:08:53;;;;;;;1.50;1.00;;;13.50;98.20;;;;;;5025810;28;20495;-80
2022/06/21 02:11:25;;;;;;;1.43;1.00;;;13.50;98.20;;;;;;5016245;28;20505;-79
2022/06/21 02:16:41;;;;;;;1.47;1.00;;;13.40;98.20;;;;;;5010713;28;20770;-79
2022/06/21 02:19:13;;;;;;;1.50;1.00;;;13.40;98.20;;;;;;5026833;28;20455;-79
2022/06/21 02:21:42;;;;;;;1.50;1.10;;;13.30;98.20;;;;;;5021663;28;20456;-79
2022/06/21 02:24:15;;;;;;;1.50;1.00;;;13.30;98.20;;;;;;5027423;28;20479;-79
2022/06/21 02:26:42;;;;;;;1.50;1.10;;;13.30;98.20;;;;;;5027810;28;20483;-79
2022/06/21 02:29:14;;;;;;;1.50;1.10;;;13.30;98.20;;;;;;5028908;28;20470;-79
2022/06/21 02:31:42;;;;;;;1.50;1.10;;;13.30;98.20;;;;;;5025972;28;20571;-79
2022/06/21 02:34:17;;;;;;;1.50;1.00;;;13.20;98.20;;;;;;5028458;28;20972;-79
2022/06/21 02:36:48;;;;;;;1.50;1.00;;;13.20;98.20;;;;;;5015433;28;20518;-79
2022/06/21 02:39:20;;;;;;;1.50;1.10;;;13.20;98.20;;;;;;5025793;28;20464;-80
2022/06/21 02:41:52;;;;;;;1.50;1.00;;;13.20;98.20;;;;;;5027636;28;20467;-79
2022/06/21 02:44:26;;;;;;;1.50;1.10;;;13.10;98.20;;;;;;5029463;28;20488;-79
2022/06/21 02:46:57;;;;;;;1.50;1.10;;;13.10;98.20;;;;;;5027737;28;20527;-80
2022/06/21 02:49:29;;;;;;;1.50;1.07;;;13.10;98.20;;;;;;5022388;28;20532;-79
2022/06/21 02:51:59;;;;;;;1.43;1.00;;;13.10;98.20;;;;;;5015974;28;20488;-79
2022/06/21 02:54:29;;;;;;;1.50;1.10;;;13.10;98.20;;;;;;5026025;28;20894;-79
2022/06/21 02:57:01;;;;;;;1.50;1.10;;;13.00;98.20;;;;;;5026361;28;20464;-79
2022/06/21 02:59:33;;;;;;;1.50;1.00;;;13.00;98.20;;;;;;5027255;28;20523;-80
2022/06/21 03:02:07;;;;;;;1.50;1.10;;;13.00;98.20;;;;;;5015339;28;20488;-79
2022/06/21 03:04:39;;;;;;;1.50;1.20;;;13.00;98.20;;;;;;5027716;28;20964;-79
2022/06/21 03:07:07;;;;;;;1.50;1.10;;;12.90;98.20;;;;;;5015580;28;20724;-79
2022/06/21 03:09:35;;;;;;;1.50;1.00;;;12.90;98.20;;;;;;5027572;28;20456;-79
2022/06/21 03:12:07;;;;;;;1.50;1.10;;;12.90;98.20;;;;;;5024588;28;20464;-80
2022/06/21 03:14:38;;;;;;;1.50;1.20;;;12.90;98.20;;;;;;5026649;28;20532;-79
2022/06/21 03:17:09;;;;;;;1.50;1.10;;;12.80;98.20;;;;;;5013822;28;20495;-79
2022/06/21 03:19:39;;;;;;;1.50;1.00;;;12.80;98.20;;;;;;5026313;28;20499;-79
2022/06/21 03:22:16;;;;;;;1.50;1.10;;;12.80;98.20;;;;;;5015397;28;20572;-80
2022/06/21 03:24:43;;;;;;;1.47;1.00;;;12.80;98.20;;;;;;5021451;28;20987;-79
2022/06/21 03:27:17;;;;;;;1.50;1.00;;;12.70;98.20;;;;;;5014800;28;20477;-80
2022/06/21 03:29:45;;;;;;;2.53;2.33;;;12.70;98.20;;;;;;5026135;28;20470;-79
2022/06/21 03:32:13;;;;;;;1.50;1.10;;;12.70;98.20;;;;;;5014211;28;20535;-79
2022/06/21 03:34:40;;;;;;;1.50;1.20;;;12.70;98.20;;;;;;5027356;28;20471;-79
2022/06/21 03:37:07;;;;;;;1.50;1.10;;;12.70;98.20;;;;;;5016046;28;20491;-80
2022/06/21 03:42:20;;;;;;;1.50;1.10;;;12.70;98.20;;;;;;5024812;28;20447;-80
2022/06/21 03:44:54;;;;;;;1.50;1.10;;;12.70;98.20;;;;;;5025887;28;20456;-79
2022/06/21 03:47:26;;;;;;;1.47;1.00;;;12.60;98.20;;;;;;5016947;28;20480;-83
2022/06/21 03:49:59;;;;;;;1.50;1.10;;;12.70;98.20;;;;;;5026689;28;20498;-80
2022/06/21 03:52:43;;;;;;;1.50;1.10;;;12.70;98.20;;;;;;5025583;28;20771;-81
2022/06/21 03:55:27;;;;;;;1.50;1.10;;;12.70;98.20;;;;;;5027291;28;20491;-82
2022/06/21 03:58:01;;;;;;;1.50;1.10;;;12.70;98.20;;;;;;5021738;28;20483;-81
2022/06/21 04:00:36;;;;;;;1.50;1.10;;;12.70;98.20;;;;;;5025328;28;20455;-80
2022/06/21 04:03:06;;;;;;;1.50;1.00;;;12.70;98.20;;;;;;5013190;28;20479;-80
2022/06/21 04:05:38;;;;;;;1.50;1.10;;;12.70;98.20;;;;;;5024049;28;20527;-80
2022/06/21 04:08:12;;;;;;;1.50;1.00;;;12.70;98.20;;;;;;5024298;28;20479;-79
2022/06/21 04:10:52;;;;;;;1.50;1.10;;;12.70;98.20;;;;;;5022786;28;20468;-83
2022/06/21 04:13:24;;;;;;;1.50;1.00;;;12.80;98.20;;;;;;5027354;28;21007;-80
2022/06/21 04:15:59;;;;;;;1.50;1.00;;;12.80;98.20;;;;;;5020050;28;20466;-80
2022/06/21 04:18:29;;;;;;;1.50;1.10;;;12.80;98.20;;;;;;5028822;28;20459;-82
2022/06/21 04:21:03;;;;;;;1.50;1.00;;;12.80;98.20;;;;;;5018936;28;20649;-81
2022/06/21 04:23:34;;;;;;;1.40;1.00;;;12.90;98.20;;;;;;5026496;28;20512;-83
2022/06/21 04:26:08;;;;;;;1.47;1.00;;;12.90;98.20;;;;;;5028583;28;20527;-81
2022/06/21 04:28:40;;;;;;;1.50;1.00;;;12.90;98.20;;;;;;5022024;28;20470;-80
2022/06/21 04:31:14;;;;;;;1.90;1.70;;;12.90;98.20;;;;;;5014432;28;20491;-83
2022/06/21 04:33:47;;;;;;;1.47;1.10;;;13.00;98.20;;;;;;5027092;28;20498;-85
2022/06/21 04:36:30;;;;;;;;;;;;;;;;;;;;;
2022/06/21 04:39:41;;;;;;;1.50;1.10;;;13.10;98.20;;;;;;5023717;28;20460;-77
2022/06/21 04:42:15;;;;;;;1.50;1.10;;;13.30;98.20;;;;;;5005845;28;20486;-86
2022/06/21 04:44:49;;;;;;;1.50;1.07;;;13.40;98.20;;;;;;5019512;28;20466;-80
2022/06/21 04:47:23;;;;;;;1.50;1.00;;;13.60;98.20;;;;;;5016242;28;20915;-81
2022/06/21 04:49:55;;;;;;;1.50;1.10;;;13.80;98.20;;;;;;5012001;28;20901;-80
2022/06/21 04:52:28;;;;;;;1.50;1.00;;;14.10;98.20;;;;;;4999833;28;20484;-82
2022/06/21 04:54:55;;;;;;;1.50;1.00;;;14.40;98.20;;;;;;5017710;28;20466;-80
2022/06/21 04:57:25;;;;;;;1.50;1.00;;;14.50;98.20;;;;;;5004858;28;20551;-81
2022/06/21 04:59:55;;;;;;;1.50;0.90;;;14.70;98.20;;;;;;5015417;28;20456;-81
2022/06/21 05:02:26;;;;;;;1.50;1.00;;;14.90;98.20;;;;;;5014715;28;20480;-82
2022/06/21 05:04:57;;;;;;;1.50;1.10;;;15.10;98.20;;;;;;5018144;28;20475;-83
2022/06/21 05:07:30;;;;;;;1.50;1.10;;;15.30;98.00;;;;;;5006632;28;20488;-83
2022/06/21 05:09:58;;;;;;;1.50;1.00;;;15.40;98.20;;;;;;5011522;28;20494;-83
2022/06/21 05:12:30;;;;;;;1.50;1.10;;;15.50;97.80;;;;;;5013886;28;20565;-81
2022/06/21 05:15:01;;;;;;;1.50;1.00;;;15.50;97.20;;;;;;5014740;28;20901;-82
2022/06/21 05:17:31;;;;;;;1.50;1.00;;;15.50;97.40;;;;;;5002783;28;20817;-82
2022/06/21 05:20:02;;;;;;;1.50;0.93;;;15.60;97.60;;;;;;5015688;28;20559;-81
2022/06/21 05:23:19;;;;;;;1.50;0.90;;;15.70;97.40;;;;;;5019968;28;20484;-83
2022/06/21 05:25:47;;;;;;;1.50;1.10;;;16.00;97.40;;;;;;5014651;28;20501;-80
2022/06/21 05:28:42;;;;;;;1.50;0.90;;;16.00;94.90;;;;;;4986304;28;20480;-82
2022/06/21 05:31:14;;;;;;;1.50;0.90;;;15.90;95.40;;;;;;4998345;28;20488;-79
2022/06/21 05:33:45;;;;;;;1.40;0.90;;;15.90;95.00;;;;;;5013351;28;20972;-80
2022/06/21 05:36:14;;;;;;;1.50;0.90;;;15.90;94.60;;;;;;5016538;28;20479;-79
2022/06/21 05:38:51;;;;;;;1.50;0.97;;;15.90;94.70;;;;;;5017038;28;20470;-81
2022/06/21 05:41:33;;;;;;;1.50;0.93;;;16.00;94.10;;;;;;5005294;28;20918;-82
2022/06/21 05:44:02;;;;;;;1.50;1.00;;;16.10;94.50;;;;;;5014816;28;20526;-81
2022/06/21 05:46:33;;;;;;;1.50;0.93;;;16.10;94.20;;;;;;5006154;28;20606;-81
2022/06/21 05:49:10;;;;;;;1.70;1.33;;;16.30;94.00;;;;;;5017336;28;20467;-81
2022/06/21 05:51:37;;;;;;;1.60;1.37;;;16.50;92.40;;;;;;5015410;28;20540;-81
2022/06/21 05:54:07;;;;;;;1.50;1.00;;;16.60;92.10;;;;;;5023857;28;20487;-81
2022/06/21 05:56:34;;;;;;;1.47;1.00;;;16.80;91.40;;;;;;5023689;28;20456;-80
2022/06/21 05:59:04;;;;;;;1.50;1.00;;;16.80;91.10;;;;;;5024971;28;20456;-79
2022/06/21 06:01:35;;;;;;;1.50;0.90;;;17.00;90.60;;;;;;5011612;28;20507;-80
2022/06/21 06:04:07;;;;;;;1.50;1.10;;;17.10;89.20;;;;;;5024841;28;20503;-80
2022/06/21 06:06:36;;;;;;;1.50;0.90;;;17.10;89.30;;;;;;5022531;28;20931;-81
2022/06/21 06:09:07;;;;;;;1.50;0.90;;;17.20;88.60;;;;;;5023520;28;20464;-79
2022/06/21 06:14:44;;;;;;;1.50;1.00;;;17.40;88.20;;;;;;5033217;27;20533;-90
2022/06/21 06:17:23;;;;;;;1.47;1.00;;;17.60;87.80;;;;;;5027992;28;20461;-90
2022/06/21 06:19:56;;;;;;;1.47;0.90;;;17.90;87.60;;;;;;5031357;28;20490;-88
2022/06/21 06:22:30;;;;;;;1.50;1.00;;;18.30;87.10;;;;;;5008736;28;20496;-89
2022/06/21 06:25:02;;;;;;;1.43;0.90;;;18.50;86.60;;;;;;5002670;28;20464;-88
2022/06/21 06:27:38;;;;;;;1.50;1.10;;;18.80;84.50;;;;;;5017356;28;20578;-89
2022/06/21 06:30:13;;;;;;;1.43;0.90;;;18.90;84.70;;;;;;5015176;28;20937;-89
2022/06/21 06:32:43;;;;;;;1.50;0.97;;;19.00;84.50;;;;;;5012005;28;20527;-88
2022/06/21 06:35:20;;;;;;;1.47;0.90;;;19.30;83.70;;;;;;5014295;28;20848;-88
2022/06/21 06:37:48;;;;;;;1.50;0.90;;;19.20;83.40;;;;;;4998721;28;20548;-90
2022/06/21 06:40:22;;;;;;;1.50;0.97;;;19.30;83.70;;;;;;4998566;28;20810;-90
2022/06/21 06:42:54;;;;;;;2.40;2.20;;;19.50;84.10;;;;;;4995137;28;20617;-89
2022/06/21 06:45:25;;;;;;;1.50;0.90;;;19.60;83.50;;;;;;5007349;28;20512;-89
2022/06/21 06:48:01;;;;;;;1.50;0.90;;;19.90;82.00;;;;;;5000970;28;20536;-89
2022/06/21 06:50:35;;;;;;;1.47;0.90;;;20.30;80.80;;;;;;5014818;28;20462;-89
2022/06/21 06:53:05;;;;;;;1.50;1.03;;;20.50;80.90;;;;;;5002753;28;20472;-89
2022/06/21 06:55:40;;;;;;;3.33;2.73;;;20.40;80.30;;;;;;5006982;28;20499;-91
2022/06/21 06:58:12;;;;;;;1.47;0.90;;;20.60;79.60;;;;;;5002493;28;20494;-90
2022/06/21 07:00:45;;;;;;;1.50;0.90;;;20.70;79.10;;;;;;5005321;28;20460;-89
2022/06/21 07:03:15;;;;;;;1.50;0.90;;;20.80;78.90;;;;;;5004358;28;20461;-90
2022/06/21 07:05:47;;;;;;;1.50;0.90;;;21.10;79.40;;;;;;5008961;28;20499;-90
2022/06/21 07:08:20;;;;;;;1.47;0.90;;;21.00;78.00;;;;;;4992140;28;21065;-91
2022/06/21 07:10:49;;;;;;;1.43;0.90;;;21.10;78.70;;;;;;5013174;28;20448;-89
2022/06/21 07:13:17;;;;;;;1.50;0.90;;;21.20;78.30;;;;;;4999445;28;20496;-90
2022/06/21 07:15:49;;;;;;;1.47;0.90;;;21.50;76.80;;;;;;5010179;28;20548;-89
2022/06/21 07:18:23;;;;;;;1.50;0.90;;;21.80;76.90;;;;;;4997446;28;20555;-90
2022/06/21 07:20:50;;;;;;;1.40;0.87;;;22.10;77.40;;;;;;4995051;28;20465;-89
2022/06/21 07:23:20;;;;;;;1.50;0.90;;;22.20;75.80;;;;;;5021802;28;20515;-90
2022/06/21 07:25:51;;;;;;;1.50;0.90;;;22.20;76.70;;;;;;4990276;28;20974;-91
2022/06/21 07:28:25;;;;;;;1.43;0.90;;;22.20;77.30;;;;;;5010198;28;20992;-90
2022/06/21 07:30:57;;;;;;;1.50;0.90;;;22.50;76.20;;;;;;4976775;28;20977;-90
2022/06/21 07:33:28;;;;;;;1.47;0.90;;;22.70;74.90;;;;;;4976039;28;20565;-90
2022/06/21 07:36:00;;;;;;;1.50;0.90;;;22.80;74.80;;;;;;4970870;28;20705;-91
2022/06/21 07:38:32;;;;;;;1.50;0.90;;;22.80;74.50;;;;;;5028023;28;20855;-91
2022/06/21 07:41:02;;;;;;;1.47;0.90;;;23.00;73.40;;;;;;5016413;28;20455;-91
2022/06/21 07:43:34;;;;;;;1.50;0.90;;;23.00;72.90;;;;;;5013329;28;20862;-90
2022/06/21 07:46:05;;;;;;;1.50;0.90;;;23.10;72.20;;;;;;5002996;28;20531;-89
2022/06/21 07:48:38;;;;;;;1.50;0.90;;;23.00;70.30;;;;;;5008055;28;20514;-90
2022/06/21 07:51:09;;;;;;;1.47;0.90;;;22.80;70.50;;;;;;4981377;28;20497;-90
2022/06/21 07:53:42;;;;;;;1.47;0.83;;;22.50;71.40;;;;;;4978339;28;20597;-90
2022/06/21 07:56:15;;;;;;;1.50;0.90;;;22.40;71.80;;;;;;4971984;28;20485;-90
2022/06/21 07:58:47;;;;;;;1.47;0.90;;;22.40;72.60;;;;;;4993537;28;20932;-92
2022/06/21 08:06:59;;;;;;;1.47;0.90;;;22.80;71.50;;;;;;4996395;28;21074;-91
2022/06/21 08:09:36;;;;;;;1.47;0.80;;;22.80;70.10;;;;;;5001993;28;21044;-92
2022/06/21 08:12:03;;;;;;;1.43;0.90;;;22.90;70.40;;;;;;4994535;28;20491;-94
2022/06/21 08:14:35;;;;;;;1.47;0.90;;;23.10;69.80;;;;;;4986948;28;20485;-91
2022/06/21 08:17:11;;;;;;;1.47;0.90;;;23.10;69.60;;;;;;4994643;28;20516;-92
2022/06/21 08:19:43;;;;;;;1.43;0.90;;;23.00;69.20;;;;;;4996759;28;20488;-92
2022/06/21 08:22:16;;;;;;;1.47;0.90;;;22.90;68.70;;;;;;4996722;28;20487;-90
2022/06/21 08:24:50;;;;;;;1.47;0.90;;;22.90;69.70;;;;;;4999377;28;20477;-90
2022/06/21 08:27:24;;;;;;;1.50;0.90;;;23.00;70.90;;;;;;4994298;28;20457;-92
2022/06/21 08:29:56;;;;;;;1.47;0.90;;;23.30;69.70;;;;;;4992436;28;20559;-92
2022/06/21 08:32:33;;;;;;;1.50;0.90;;;23.80;68.30;;;;;;4998890;28;20551;-90
2022/06/21 08:35:07;;;;;;;1.50;0.90;;;24.20;70.00;;;;;;5001458;28;20902;-92
2022/06/21 08:37:40;;;;;;;1.50;0.90;;;24.60;70.10;;;;;;4995715;28;20957;-91
2022/06/21 08:40:50;;;;;;;1.50;0.87;;;25.00;66.90;;;;;;4997287;28;20484;-94
2022/06/21 08:43:47;;;;;;;1.47;0.80;;;25.10;67.30;;;;;;5002297;28;20505;-91
2022/06/21 08:46:47;;;;;;;1.47;0.90;;;25.00;66.50;;;;;;4995513;28;20453;-93
2022/06/21 08:49:46;;;;;;;1.50;0.80;;;24.40;67.70;;;;;;4990552;28;20520;-92
2022/06/21 08:52:42;;;;;;;1.50;0.90;;;24.00;69.00;;;;;;4990240;28;20583;-91
2022/06/21 08:55:23;;;;;;;1.47;0.90;;;23.90;69.00;;;;;;4994010;28;20488;-89
2022/06/21 08:58:02;;;;;;;1.47;0.80;;;24.10;69.50;;;;;;4995448;28;20455;-93
2022/06/21 09:00:36;;;;;;;1.47;0.80;;;24.20;68.10;;;;;;4995916;28;20449;-91
2022/06/21 09:03:29;;;;;;;1.50;0.80;;;24.20;69.10;;;;;;5001482;28;20559;-92
2022/06/21 09:06:15;;;;;;;1.47;0.90;;;24.30;69.70;;;;;;4988052;28;20524;-92
2022/06/21 09:09:07;;;;;;;1.43;0.80;;;24.60;68.40;;;;;;5007187;28;20484;-93
2022/06/21 09:11:45;;;;;;;1.47;0.90;;;24.90;69.80;;;;;;5001039;28;20501;-93
2022/06/21 09:14:44;;;;;;;1.50;0.90;;;25.00;67.30;;;;;;5003429;28;20538;-92
2022/06/21 09:17:21;;;;;;;1.47;0.80;;;24.80;67.30;;;;;;4970407;28;20492;-90
2022/06/21 09:20:33;;;;;;;1.47;0.80;;;24.70;67.40;;;;;;5001991;28;20508;-92
2022/06/21 09:23:07;;;;;;;1.40;0.80;;;24.60;70.40;;;;;;4972870;28;20558;-91
2022/06/21 09:25:46;;;;;;;1.47;0.90;;;24.80;68.50;;;;;;4998231;28;20434;-90
2022/06/21 09:28:25;;;;;;;1.47;0.80;;;25.00;67.40;;;;;;4995898;28;20484;-90
2022/06/21 09:31:00;;;;;;;1.47;0.90;;;24.90;67.30;;;;;;4989094;28;20934;-91
2022/06/21 09:33:38;;;;;;;2.13;1.93;;;24.80;68.00;;;;;;5005367;28;20519;-90
2022/06/21 09:36:14;;;;;;;1.47;0.90;;;24.90;67.60;;;;;;4995780;28;20540;-92
2022/06/21 09:38:53;;;;;;;1.47;0.80;;;25.20;68.40;;;;;;4984759;28;20474;-89
2022/06/21 09:41:28;;;;;;;4.70;3.57;;;25.50;66.90;;;;;;4973716;28;20585;-91
2022/06/21 09:44:10;;;;;;;1.50;0.90;;;25.90;66.20;;;;;;4997584;28;20477;-90
2022/06/21 09:46:46;;;;;;;1.40;0.80;;;25.90;65.90;;;;;;4984821;28;21005;-91
2022/06/21 09:49:29;;;;;;;1.40;0.83;;;25.90;64.80;;;;;;4981807;28;20485;-90
2022/06/21 09:52:03;;;;;;;1.47;0.90;;;25.70;65.70;;;;;;4980438;28;20943;-90
2022/06/21 09:54:36;;;;;;;1.40;0.80;;;25.70;65.60;;;;;;4991472;28;20492;-90
2022/06/21 09:57:13;;;;;;;1.47;0.83;;;25.30;66.10;;;;;;4973203;28;20556;-91
2022/06/21 09:59:50;;;;;;;1.47;0.80;;;25.40;65.60;;;;;;4972453;28;20902;-91
2022/06/21 10:02:38;;;;;;;1.40;0.80;;;25.50;65.50;;;;;;4974422;28;20472;-88
2022/06/21 10:05:15;;;;;;;1.43;0.90;;;25.40;64.60;;;;;;4974540;28;20480;-91
2022/06/21 10:08:00;;;;;;;1.50;0.80;;;25.30;64.80;;;;;;4983112;28;20475;-91
2022/06/21 10:10:41;;;;;;;1.47;0.80;;;25.20;65.80;;;;;;4971268;28;20497;-90
2022/06/21 10:13:21;;;;;;;1.47;0.90;;;25.30;66.80;;;;;;4980288;28;20581;-91
2022/06/21 10:15:54;;;;;;;1.50;1.00;;;25.50;65.10;;;;;;4990496;28;20460;-91
2022/06/21 10:18:54;;;;;;;1.40;0.80;;;25.60;65.90;;;;;;4990806;28;20481;-90
2022/06/21 10:21:45;;;;;;;1.47;0.83;;;25.70;64.40;;;;;;4967566;28;20850;-90
2022/06/21 10:24:33;;;;;;;1.40;0.80;;;25.70;64.20;;;;;;4981288;28;20575;-91
2022/06/21 10:27:21;;;;;;;1.43;0.80;;;25.60;64.20;;;;;;4977213;28;21009;-90
2022/06/21 10:30:09;;;;;;;1.40;0.80;;;25.80;65.70;;;;;;4978841;28;20482;-90
2022/06/21 10:33:14;;;;;;;1.40;0.80;;;25.80;64.90;;;;;;4977107;28;20458;-90
2022/06/21 10:35:53;;;;;;;1.40;0.80;;;25.30;64.60;;;;;;4977858;28;20507;-91
2022/06/21 10:38:52;;;;;;;1.43;0.83;;;25.10;64.50;;;;;;4970667;28;20485;-91
2022/06/21 10:41:38;;;;;;;1.50;0.90;;;25.10;65.30;;;;;;4967774;28;20481;-91
2022/06/21 10:44:32;;;;;;;1.43;0.83;;;25.10;64.70;;;;;;4976054;28;20456;-91
2022/06/21 10:47:04;;;;;;;1.50;0.90;;;25.20;64.70;;;;;;4982692;28;20502;-89
2022/06/21 10:49:46;;;;;;;1.40;0.90;;;25.10;64.30;;;;;;4976637;28;20526;-90
2022/06/21 10:52:34;;;;;;;1.50;0.80;;;25.00;65.40;;;;;;4980444;28;20457;-90
2022/06/21 10:55:21;;;;;;;1.40;0.80;;;24.70;64.00;;;;;;4978376;28;20977;-88
2022/06/21 10:57:58;;;;;;;1.40;0.80;;;24.60;63.50;;;;;;4984599;28;20840;-90
2022/06/21 11:03:51;;;;;;;1.40;0.90;;;25.00;63.80;;;;;;4993499;28;21013;-90
2022/06/21 11:06:29;;;;;;;1.50;0.90;;;25.00;64.10;;;;;;4991470;28;20479;-90
2022/06/21 11:09:07;;;;;;;1.50;0.90;;;25.00;64.20;;;;;;4992009;28;20484;-90
2022/06/21 11:11:43;;;;;;;1.50;0.80;;;24.60;64.80;;;;;;4983395;28;20548;-89
2022/06/21 11:14:21;;;;;;;1.43;0.83;;;24.60;65.50;;;;;;4983847;28;20485;-90
2022/06/21 11:16:59;;;;;;;1.47;0.90;;;24.50;65.20;;;;;;4991713;28;20491;-92
2022/06/21 11:19:37;;;;;;;1.43;0.87;;;24.50;66.00;;;;;;5005576;28;20489;-90
2022/06/21 11:22:21;;;;;;;1.47;0.90;;;24.70;67.00;;;;;;5006415;28;20460;-91
2022/06/21 11:24:58;;;;;;;1.50;0.80;;;25.00;66.30;;;;;;5010348;28;20463;-91
2022/06/21 11:27:34;;;;;;;1.50;0.80;;;25.40;64.00;;;;;;5007485;28;20483;-90
2022/06/21 11:30:10;;;;;;;1.40;0.90;;;25.70;63.20;;;;;;5021436;28;20491;-89
2022/06/21 11:33:05;;;;;;;2.10;1.10;;;25.60;63.40;;;;;;5017974;28;20459;-90
2022/06/21 11:35:43;;;;;;;1.40;0.80;;;25.70;63.20;;;;;;4999970;28;20499;-91
2022/06/21 11:38:35;;;;;;;1.50;0.80;;;26.00;64.50;;;;;;4998671;28;20586;-91
2022/06/21 11:41:06;;;;;;;1.40;0.80;;;26.40;63.30;;;;;;5016536;28;20599;-92
2022/06/21 11:43:56;;;;;;;1.47;0.90;;;26.70;62.20;;;;;;5007787;28;20492;-91
2022/06/21 11:46:30;;;;;;;1.50;0.80;;;26.80;60.20;;;;;;4989506;28;20475;-91
2022/06/21 11:49:35;;;;;;;1.40;0.80;;;27.00;62.30;;;;;;4995013;28;20837;-90
2022/06/21 11:52:36;;;;;;;1.47;0.80;;;27.00;62.30;;;;;;4994120;28;20559;-91
2022/06/21 11:55:17;;;;;;;1.50;1.00;;;27.30;61.40;;;;;;4982541;28;20972;-91
2022/06/21 11:57:50;;;;;;;1.43;0.80;;;27.40;59.80;;;;;;4980332;28;21012;-91
2022/06/21 12:00:24;;;;;;;1.47;0.90;;;27.70;61.50;;;;;;4984723;28;20508;-91
2022/06/21 12:02:56;;;;;;;1.40;0.80;;;28.30;59.90;;;;;;4987688;28;20563;-89
2022/06/21 12:05:36;;;;;;;1.43;0.80;;;28.40;57.00;;;;;;4985723;28;20915;-90
2022/06/21 12:08:11;;;;;;;1.47;0.80;;;28.10;57.90;;;;;;4979287;28;20576;-91
2022/06/21 12:10:54;;;;;;;1.43;0.80;;;28.30;59.10;;;;;;4980101;28;20462;-91
2022/06/21 12:13:38;;;;;;;1.50;1.00;;;28.40;57.40;;;;;;4959682;23;20583;-77
2022/06/21 12:16:23;;;;;;;1.43;0.80;;;28.70;58.30;;;;;;4905213;29;20617;-79
2022/06/21 12:18:54;;;;;;;1.43;0.80;;;28.70;58.60;;;;;;4917631;29;20555;-79
2022/06/21 12:21:26;;;;;;;1.43;0.80;;;28.90;56.90;;;;;;4911433;29;20461;-80
2022/06/21 12:23:56;;;;;;;1.43;0.90;;;28.90;57.50;;;;;;4916172;29;20472;-78
2022/06/21 12:26:28;;;;;;;1.40;0.80;;;28.50;56.70;;;;;;4938142;23;20582;-80
2022/06/21 12:29:15;;;;;;;1.47;0.80;;;28.40;56.80;;;;;;4951584;29;20491;-82
2022/06/21 12:31:52;;;;;;;1.50;0.90;;;28.50;57.40;;;;;;4935847;29;20946;-81
2022/06/21 12:34:29;;;;;;;1.50;0.80;;;28.30;57.70;;;;;;4941068;29;20470;-82
2022/06/21 12:37:02;;;;;;;1.47;0.80;;;28.30;56.90;;;;;;4944937;28;20604;-81
2022/06/21 12:39:34;;;;;;;1.40;0.80;;;28.40;58.00;;;;;;4957496;28;20493;-81
2022/06/21 12:45:38;;;;;;;1.50;1.00;;;28.20;58.70;;;;;;4957604;28;20826;-81
2022/06/21 12:48:44;;;;;;;1.50;0.80;;;28.10;57.00;;;;;;4966188;28;20569;-82
2022/06/21 12:51:17;;;;;;;1.43;0.80;;;28.00;59.20;;;;;;4890933;29;20548;-81
2022/06/21 12:54:11;;;;;;;1.50;0.80;;;28.00;57.70;;;;;;4952775;28;20589;-82
2022/06/21 12:56:54;;;;;;;1.43;0.80;;;28.30;57.50;;;;;;4955074;28;20483;-81
2022/06/21 12:59:40;;;;;;;1.43;0.80;;;28.70;58.10;;;;;;4957950;29;20893;-82
2022/06/21 13:02:47;;;;;;;1.40;0.80;;;29.40;57.00;;;;;;4957931;28;20593;-82
2022/06/21 13:05:32;;;;;;;1.43;0.80;;;29.20;55.20;;;;;;4957436;28;20560;-82
2022/06/21 13:08:33;;;;;;;1.43;0.80;;;28.90;56.50;;;;;;4963781;28;20519;-82
2022/06/21 13:11:14;;;;;;;1.43;0.80;;;28.70;56.60;;;;;;4959604;29;20554;-80
2022/06/21 13:13:54;;;;;;;1.40;0.80;;;28.70;56.20;;;;;;4957570;29;20557;-79
2022/06/21 13:16:36;;;;;;;1.47;0.80;;;28.80;55.50;;;;;;4953991;29;20796;-80
2022/06/21 13:19:27;;;;;;;1.43;0.80;;;28.40;55.70;;;;;;4959998;29;20458;-82
2022/06/21 13:22:06;;;;;;;1.40;0.80;;;28.30;56.50;;;;;;4958669;28;20466;-82
2022/06/21 13:24:51;;;;;;;1.47;0.80;;;28.20;57.20;;;;;;4956935;29;22448;-81
2022/06/21 13:27:41;;;;;;;1.47;0.80;;;28.30;57.60;;;;;;4962074;28;20639;-82
2022/06/21 13:30:43;;;;;;;1.40;0.80;;;28.20;58.30;;;;;;4935698;29;20478;-83
2022/06/21 13:33:15;;;;;;;1.40;0.80;;;28.10;58.00;;;;;;4937395;29;20484;-83
2022/06/21 13:35:51;;;;;;;1.40;0.80;;;28.20;58.20;;;;;;4942061;29;21092;-82
2022/06/21 13:39:19;;;;;;;1.43;0.80;;;28.20;59.00;;;;;;4923701;29;20479;-82
2022/06/21 13:44:45;;;;;;;1.47;0.80;;;28.20;58.50;;;;;;4935675;29;20505;-82
2022/06/21 13:47:15;;;;;;;1.43;0.80;;;27.60;57.70;;;;;;4937585;29;20491;-82
2022/06/21 13:49:47;;;;;;;1.43;0.80;;;27.40;58.10;;;;;;4934141;29;20467;-82
2022/06/21 13:52:22;;;;;;;1.50;0.90;;;27.40;59.80;;;;;;4939636;29;20522;-80
2022/06/21 13:54:55;;;;;;;1.47;0.87;;;27.50;60.00;;;;;;4938284;29;20501;-82
2022/06/21 13:58:00;;;;;;;1.43;0.80;;;27.50;59.10;;;;;;4953614;28;20496;-81